Time;durP1;ratioP1;P1;durP2;ratioP2;P2;SDS_P1;SDS_P2;PMS_P1;PMS_P2;Temp;Humidity;BMP_temperature;BMP_pressure;BME280_temperature;BME280_humidity;BME280_pressure;Samples;Min_cycle;Max_cycle;Signal;HPM_P1;HPM_P2
2023/09/04 00:01:43;;;;;;;3.95;2.35;;;16.70;99.90;;;16.99;100.00;102119.44;5285185;28;20040;-52
2023/09/04 00:04:17;;;;;;;4.07;2.47;;;16.70;99.90;;;16.98;100.00;102125.53;5274850;28;20051;-50
2023/09/04 00:06:50;;;;;;;3.50;2.58;;;16.70;99.90;;;16.97;100.00;102131.66;5278957;28;20039;-50
2023/09/04 00:09:23;;;;;;;5.63;2.70;;;16.70;99.90;;;16.99;100.00;102132.59;5285179;28;20040;-50
2023/09/04 00:11:55;;;;;;;3.10;2.40;;;16.70;99.90;;;17.01;100.00;102128.25;5285317;28;20063;-52
2023/09/04 00:14:28;;;;;;;4.20;2.50;;;16.70;99.90;;;17.03;100.00;102126.59;5285173;28;20044;-51
2023/09/04 00:17:01;;;;;;;4.30;2.67;;;16.70;99.90;;;17.05;100.00;102134.53;5276522;28;20036;-51
2023/09/04 00:19:38;;;;;;;4.25;2.83;;;16.70;99.90;;;17.04;100.00;102131.00;5264146;28;20051;-53
2023/09/04 00:22:12;;;;;;;5.20;2.80;;;16.80;99.90;;;17.04;100.00;102120.47;5281993;28;20088;-49
2023/09/04 00:24:44;;;;;;;4.05;2.60;;;16.80;99.90;;;17.07;100.00;102117.91;5276924;28;20039;-50
2023/09/04 00:27:19;;;;;;;4.30;2.72;;;16.80;99.90;;;17.09;100.00;102110.97;5284438;28;20051;-50
2023/09/04 00:29:54;;;;;;;;;;;16.80;99.90;;;17.09;100.00;102116.22;5285794;28;20451;-51
2023/09/04 00:32:26;;;;;;;4.82;2.83;;;16.80;99.90;;;17.12;100.00;102117.16;5285190;28;19923;-51
2023/09/04 00:35:00;;;;;;;5.15;2.95;;;16.80;99.90;;;17.12;100.00;102115.41;5277565;28;20044;-49
2023/09/04 00:37:35;;;;;;;4.70;2.60;;;16.90;99.90;;;17.14;100.00;102107.53;5284738;28;20059;-51
2023/09/04 00:40:10;;;;;;;4.82;2.70;;;16.80;99.90;;;17.19;100.00;102105.94;5285381;28;20039;-53
2023/09/04 00:42:43;;;;;;;3.83;2.60;;;16.90;99.90;;;17.20;100.00;102098.06;5276324;28;20523;-53
2023/09/04 00:45:15;;;;;;;4.07;2.80;;;16.90;99.90;;;17.20;100.00;102097.19;5284310;28;20039;-51
2023/09/04 00:47:54;;;;;;;3.75;2.50;;;16.90;99.90;;;17.21;100.00;102106.88;5271627;28;20046;-51
2023/09/04 00:50:28;;;;;;;3.95;2.65;;;16.90;99.90;;;17.21;100.00;102113.03;5274915;28;20465;-53
2023/09/04 00:53:07;;;;;;;3.60;2.20;;;16.90;99.90;;;17.18;100.00;102114.69;5284771;28;20493;-51
2023/09/04 00:55:40;;;;;;;3.60;2.30;;;16.90;99.90;;;17.16;100.00;102112.03;5277411;28;20036;-58
2023/09/04 00:58:12;;;;;;;3.35;2.13;;;16.80;99.90;;;17.14;100.00;102112.81;5284163;28;20067;-50
2023/09/04 01:00:45;;;;;;;3.50;2.70;;;16.80;99.90;;;17.10;100.00;102117.13;5284167;28;20439;-50
2023/09/04 01:03:20;;;;;;;3.80;2.67;;;16.80;99.90;;;17.06;100.00;102109.97;5283388;28;20040;-52
2023/09/04 01:05:53;;;;;;;3.53;2.33;;;16.80;99.90;;;17.05;100.00;102105.53;5284073;28;20055;-51
2023/09/04 01:08:27;;;;;;;3.60;2.55;;;16.80;99.90;;;17.02;100.00;102097.56;5284759;28;20053;-51
2023/09/04 01:11:10;;;;;;;4.82;2.90;;;16.70;99.90;;;17.02;100.00;102098.47;5276456;28;20043;-53
2023/09/04 01:13:49;;;;;;;4.25;2.75;;;16.70;99.90;;;17.02;100.00;102097.56;5281085;28;20040;-52
2023/09/04 01:16:23;;;;;;;5.00;3.05;;;16.70;99.90;;;16.99;100.00;102093.09;5284167;28;20058;-51
2023/09/04 01:18:56;;;;;;;5.20;3.17;;;16.70;99.90;;;17.00;100.00;102094.88;5283269;28;20040;-50
2023/09/04 01:21:30;;;;;;;4.18;2.60;;;16.70;99.90;;;17.00;100.00;102089.59;5288448;28;20044;-50
2023/09/04 01:24:04;;;;;;;5.25;3.05;;;16.70;99.90;;;16.99;100.00;102082.56;5280377;28;20476;-52
2023/09/04 01:26:41;;;;;;;5.50;2.65;;;16.70;99.90;;;16.97;100.00;102078.09;5287706;28;20046;-51
2023/09/04 01:29:22;;;;;;;4.05;2.42;;;16.70;99.90;;;16.96;100.00;102081.59;5288061;28;20044;-52
2023/09/04 01:32:03;;;;;;;3.42;2.28;;;16.70;99.90;;;16.96;100.00;102068.41;5289003;28;20039;-52
2023/09/04 01:34:39;;;;;;;4.43;2.60;;;16.70;99.90;;;16.93;100.00;102065.69;5288808;28;20071;-51
2023/09/04 01:37:14;;;;;;;3.13;2.40;;;16.60;99.90;;;16.91;100.00;102057.72;5288137;28;20063;-53
2023/09/04 01:39:48;;;;;;;3.25;2.30;;;16.60;99.90;;;16.91;100.00;102068.28;5288928;28;20162;-51
2023/09/04 01:42:20;;;;;;;4.35;2.22;;;16.60;99.90;;;16.88;100.00;102073.44;5288899;28;20043;-54
2023/09/04 01:44:52;;;;;;;4.65;2.63;;;16.60;99.90;;;16.82;100.00;102070.63;5288789;28;20050;-51
2023/09/04 01:47:30;;;;;;;3.40;2.28;;;16.50;99.90;;;16.75;100.00;102076.56;5277383;28;20047;-52
2023/09/04 01:50:03;;;;;;;4.18;2.65;;;16.50;99.90;;;16.69;100.00;102071.06;5283679;28;20134;-51
2023/09/04 01:52:38;;;;;;;2.55;2.00;;;16.40;99.90;;;16.63;100.00;102068.28;5288021;28;20039;-56
2023/09/04 01:55:11;;;;;;;3.88;2.30;;;16.40;99.90;;;16.55;100.00;102062.75;5288217;28;20040;-55
2023/09/04 01:57:44;;;;;;;3.85;2.40;;;16.30;99.90;;;16.48;100.00;102061.69;5280187;28;20039;-50
2023/09/04 02:00:18;;;;;;;3.58;2.55;;;16.20;99.90;;;16.41;100.00;102064.06;5288682;28;20412;-51
2023/09/04 02:02:51;;;;;;;3.05;2.30;;;16.10;99.90;;;16.35;100.00;102070.03;5289686;28;20058;-50
2023/09/04 02:05:25;;;;;;;3.75;2.40;;;16.10;99.90;;;16.29;100.00;102075.09;5279660;28;20066;-52
2023/09/04 02:08:02;;;;;;;3.65;2.20;;;16.00;99.90;;;16.24;100.00;102074.09;5281452;28;20044;-50
2023/09/04 02:10:35;;;;;;;4.47;2.40;;;16.00;99.90;;;16.20;100.00;102073.09;5279129;28;20039;-50
2023/09/04 02:13:08;;;;;;;3.40;2.35;;;15.90;99.90;;;16.17;100.00;102070.38;5288207;28;20062;-51
2023/09/04 02:15:41;;;;;;;4.35;2.80;;;15.90;99.90;;;16.14;100.00;102075.53;5287962;28;20066;-52
2023/09/04 02:18:13;;;;;;;4.60;2.50;;;15.90;99.90;;;16.11;100.00;102069.28;5287784;28;20051;-51
2023/09/04 02:20:48;;;;;;;4.53;2.50;;;15.80;99.90;;;16.06;100.00;102071.75;5287845;28;20405;-52
2023/09/04 02:23:21;;;;;;;3.65;2.70;;;15.80;99.90;;;16.03;100.00;102071.63;5286692;28;20535;-51
2023/09/04 02:25:54;;;;;;;4.00;2.38;;;15.80;99.90;;;15.99;100.00;102065.41;5281212;28;20588;-53
2023/09/04 02:28:26;;;;;;;3.50;2.35;;;15.70;99.90;;;15.96;100.00;102070.53;5279072;28;20048;-52
2023/09/04 02:31:06;;;;;;;4.43;2.60;;;15.70;99.90;;;15.94;100.00;102069.59;5287664;28;20040;-50
2023/09/04 02:33:38;;;;;;;5.38;2.50;;;15.70;99.90;;;15.94;100.00;102077.50;5287672;28;20500;-52
2023/09/04 02:36:11;;;;;;;6.00;2.70;;;15.70;99.90;;;15.94;100.00;102071.34;5287676;28;20523;-50
2023/09/04 02:38:45;;;;;;;3.88;2.17;;;15.70;99.90;;;15.94;100.00;102066.97;5278846;28;20130;-51
2023/09/04 02:41:17;;;;;;;4.22;2.50;;;15.70;99.90;;;15.93;100.00;102062.56;5287654;28;20059;-51
2023/09/04 02:43:50;;;;;;;4.38;2.80;;;15.70;99.90;;;15.91;100.00;102064.25;5287675;28;20838;-50
2023/09/04 02:46:22;;;;;;;3.38;2.28;;;15.70;99.90;;;15.88;100.00;102066.78;5287155;28;20581;-51
2023/09/04 02:48:55;;;;;;;3.50;2.30;;;15.60;99.90;;;15.85;100.00;102064.06;5287518;28;20032;-52
2023/09/04 02:51:27;;;;;;;4.78;2.92;;;15.60;99.90;;;15.82;100.00;102066.56;5287426;28;20084;-51
2023/09/04 02:54:01;;;;;;;4.35;2.60;;;15.60;99.90;;;15.78;100.00;102067.31;5278547;28;20112;-51
2023/09/04 02:56:34;;;;;;;4.90;2.58;;;15.50;99.90;;;15.73;100.00;102056.66;5286436;28;20043;-52
2023/09/04 02:59:06;;;;;;;3.42;2.30;;;15.50;99.90;;;15.71;100.00;102057.41;5287181;28;20048;-51
2023/09/04 03:01:39;;;;;;;4.03;2.20;;;15.40;99.90;;;15.68;100.00;102059.97;5286500;28;20051;-50
2023/09/04 03:04:12;;;;;;;3.33;2.33;;;15.40;99.90;;;15.65;100.00;102062.50;5278400;28;20121;-50
2023/09/04 03:06:44;;;;;;;3.60;2.58;;;15.40;99.90;;;15.62;100.00;102067.63;5269572;28;20404;-50
2023/09/04 03:09:18;;;;;;;3.13;2.25;;;15.40;99.90;;;15.60;100.00;102064.03;5287018;28;20088;-50
2023/09/04 03:11:50;;;;;;;4.82;2.55;;;15.30;99.90;;;15.59;100.00;102067.50;5287110;28;20055;-50
2023/09/04 03:14:26;;;;;;;4.57;2.70;;;15.30;99.90;;;15.58;100.00;102073.56;5278369;28;20512;-51
2023/09/04 03:16:59;;;;;;;4.70;2.47;;;15.30;99.90;;;15.57;100.00;102080.56;5279872;28;20051;-50
2023/09/04 03:19:32;;;;;;;3.97;2.50;;;15.30;99.90;;;15.57;100.00;102077.06;5286645;28;20127;-51
2023/09/04 03:22:05;;;;;;;3.53;2.22;;;15.30;99.90;;;15.57;100.00;102077.06;5279691;28;20522;-50
2023/09/04 03:24:39;;;;;;;4.03;2.25;;;15.30;99.90;;;15.56;100.00;102086.66;5285861;28;20506;-49
2023/09/04 03:27:12;;;;;;;4.55;2.47;;;15.30;99.90;;;15.53;100.00;102083.97;5286055;28;20043;-50
2023/09/04 03:29:45;;;;;;;3.42;2.22;;;15.30;99.90;;;15.53;100.00;102085.69;5286562;28;20035;-51
2023/09/04 03:32:18;;;;;;;4.03;2.45;;;15.30;99.90;;;15.52;100.00;102084.81;5286176;28;20043;-50
2023/09/04 03:34:50;;;;;;;3.60;2.25;;;15.30;99.90;;;15.51;100.00;102084.72;5281783;28;20130;-50
2023/09/04 03:37:23;;;;;;;4.18;2.60;;;15.30;99.90;;;15.51;100.00;102076.84;5281312;28;20116;-52
2023/09/04 03:40:22;;;;;;;3.55;2.15;;;15.30;99.90;;;15.46;100.00;102082.84;5278768;28;20061;-50
2023/09/04 03:42:55;;;;;;;3.30;2.10;;;15.20;99.90;;;15.42;100.00;102078.31;5278188;28;20071;-50
2023/09/04 03:45:33;;;;;;;5.00;2.20;;;15.20;99.90;;;15.37;100.00;102072.00;5286188;28;20043;-52
2023/09/04 03:48:07;;;;;;;4.05;2.40;;;15.10;99.90;;;15.33;100.00;102067.50;5285512;28;20086;-49
2023/09/04 03:50:39;;;;;;;3.67;2.47;;;15.10;99.90;;;15.29;100.00;102062.06;5286268;28;20127;-53
2023/09/04 03:53:11;;;;;;;4.25;2.53;;;15.10;99.90;;;15.25;100.00;102060.16;5278982;28;20040;-52
2023/09/04 03:55:45;;;;;;;4.18;2.38;;;15.00;99.90;;;15.22;100.00;102060.94;5285322;28;20051;-50
2023/09/04 03:58:21;;;;;;;3.25;2.28;;;15.00;99.90;;;15.19;100.00;102061.75;5285598;28;20139;-50
2023/09/04 04:00:57;;;;;;;3.80;2.35;;;15.00;99.90;;;15.17;100.00;102050.25;5264737;28;20070;-51
2023/09/04 04:03:30;;;;;;;2.95;2.22;;;15.00;99.90;;;15.17;100.00;102058.16;5300374;27;20135;-51
2023/09/04 04:06:12;;;;;;;3.70;2.78;;;15.00;99.90;;;15.18;100.00;102059.03;5277493;28;20403;-50
2023/09/04 04:08:45;;;;;;;4.47;2.40;;;15.00;99.90;;;15.18;100.00;102061.66;5285519;28;20039;-52
2023/09/04 04:11:19;;;;;;;3.55;2.40;;;14.90;99.90;;;15.21;100.00;102051.28;5277126;28;20040;-50
2023/09/04 04:13:53;;;;;;;3.67;2.13;;;15.00;99.90;;;15.19;100.00;102047.69;5277762;28;20386;-51
2023/09/04 04:16:25;;;;;;;4.40;2.40;;;15.00;99.90;;;15.21;100.00;102048.66;5276666;28;20057;-51
2023/09/04 04:18:58;;;;;;;3.45;2.17;;;15.00;99.90;;;15.21;100.00;102053.91;5285556;28;20039;-50
2023/09/04 04:21:31;;;;;;;3.42;2.20;;;15.00;99.90;;;15.20;100.00;102052.13;5278000;28;20048;-51
2023/09/04 04:24:08;;;;;;;3.50;2.72;;;15.00;99.90;;;15.20;100.00;102054.75;5279501;28;20415;-50
2023/09/04 04:26:43;;;;;;;2.88;2.05;;;15.00;99.90;;;15.21;100.00;102053.91;5281128;28;20084;-49
2023/09/04 04:29:15;;;;;;;3.75;2.17;;;15.00;99.90;;;15.19;100.00;102056.50;5273032;28;20147;-50
2023/09/04 04:31:47;;;;;;;4.20;2.63;;;15.00;99.90;;;15.18;100.00;102057.31;5285053;28;20040;-50
2023/09/04 04:34:23;;;;;;;3.67;2.20;;;14.90;99.90;;;15.16;100.00;102061.63;5277160;28;20039;-50
2023/09/04 04:36:57;;;;;;;3.72;2.28;;;14.90;99.90;;;15.12;100.00;102064.06;5268965;28;20036;-51
2023/09/04 04:39:30;;;;;;;3.08;2.30;;;14.90;99.90;;;15.08;100.00;102067.44;5277051;28;20040;-51
2023/09/04 04:42:08;;;;;;;4.30;2.38;;;14.90;99.90;;;15.04;100.00;102060.28;5279287;28;20096;-52
2023/09/04 04:44:42;;;;;;;4.20;2.40;;;14.80;99.90;;;15.01;100.00;102071.56;5275073;28;20044;-52
2023/09/04 04:47:14;;;;;;;3.33;2.10;;;14.80;99.90;;;14.96;100.00;102067.88;5284947;28;20139;-51
2023/09/04 04:49:47;;;;;;;4.47;2.55;;;14.80;99.90;;;14.92;100.00;102072.09;5288484;28;20047;-50
2023/09/04 04:52:20;;;;;;;3.67;2.20;;;14.70;99.90;;;14.92;100.00;102072.09;5289410;28;20097;-51
2023/09/04 04:54:52;;;;;;;4.38;2.50;;;14.70;99.90;;;14.92;100.00;102072.09;5277002;28;20173;-53
2023/09/04 04:57:26;;;;;;;4.13;2.60;;;14.70;99.90;;;14.92;100.00;102074.72;5268253;28;20413;-52
2023/09/04 04:59:59;;;;;;;3.85;2.38;;;14.70;99.90;;;14.92;100.00;102077.34;5289697;28;20063;-50
2023/09/04 05:02:33;;;;;;;4.30;2.70;;;14.70;99.90;;;14.91;100.00;102080.81;5289229;28;20408;-50
2023/09/04 05:05:07;;;;;;;4.10;2.50;;;14.70;99.90;;;14.92;100.00;102090.47;5281176;28;20131;-51
2023/09/04 05:07:41;;;;;;;;;;;14.70;99.90;;;14.91;100.00;102090.44;5289522;28;20048;-52
2023/09/04 05:10:15;;;;;;;3.30;2.40;;;14.70;99.90;;;14.93;100.00;102088.75;5282760;28;20342;-52
2023/09/04 05:12:49;;;;;;;4.40;2.40;;;14.70;99.90;;;14.97;100.00;102095.03;5289087;28;20152;-51
2023/09/04 05:15:22;;;;;;;3.40;2.00;;;14.80;99.90;;;14.99;100.00;102088.97;5281982;28;20050;-50
2023/09/04 05:17:54;;;;;;;4.32;2.25;;;14.80;99.90;;;15.03;100.00;102087.38;5288066;28;20290;-49
2023/09/04 05:20:27;;;;;;;4.35;2.38;;;14.80;99.90;;;15.04;100.00;102076.03;5288842;28;20040;-53
2023/09/04 05:23:00;;;;;;;3.55;2.15;;;14.80;99.90;;;15.08;100.00;102089.34;5275591;28;20059;-50
2023/09/04 05:25:33;;;;;;;4.40;2.75;;;14.80;99.90;;;15.11;100.00;102089.44;5277152;28;20048;-50
2023/09/04 05:28:08;;;;;;;4.13;2.30;;;14.90;99.90;;;15.14;100.00;102101.81;5288241;28;20086;-51
2023/09/04 05:30:41;;;;;;;5.03;2.60;;;14.90;99.90;;;15.15;100.00;102100.97;5286448;28;20050;-52
2023/09/04 05:33:14;;;;;;;3.47;2.20;;;14.90;99.90;;;15.16;100.00;102102.75;5282738;28;20508;-52
2023/09/04 05:35:47;;;;;;;4.97;2.42;;;14.90;99.90;;;15.17;100.00;102099.28;5277307;28;20113;-49
2023/09/04 05:38:20;;;;;;;4.60;2.63;;;15.00;99.90;;;15.20;100.00;102096.78;5281962;28;20496;-51
2023/09/04 05:40:55;;;;;;;3.08;2.47;;;15.00;99.90;;;15.24;100.00;102101.28;5288144;28;20123;-50
2023/09/04 05:43:28;;;;;;;4.40;2.60;;;15.00;99.90;;;15.28;100.00;102102.31;5279460;28;20158;-50
2023/09/04 05:46:01;;;;;;;4.13;2.70;;;15.00;99.90;;;15.32;100.00;102094.59;5280130;28;20055;-50
2023/09/04 05:48:36;;;;;;;3.83;2.38;;;15.10;99.90;;;15.39;100.00;102093.97;5288023;28;20059;-52
2023/09/04 05:51:08;;;;;;;6.03;2.65;;;15.20;99.90;;;15.44;100.00;102091.50;5279507;28;20058;-51
2023/09/04 05:53:40;;;;;;;4.57;2.55;;;15.20;99.90;;;15.47;100.00;102074.13;5288192;28;20051;-50
2023/09/04 05:56:14;;;;;;;4.70;2.78;;;15.30;99.90;;;15.55;100.00;102073.50;5287727;28;20035;-50
2023/09/04 05:58:50;;;;;;;3.72;2.30;;;15.30;99.90;;;15.59;100.00;102073.66;5271052;28;20059;-51
2023/09/04 06:01:23;;;;;;;3.45;2.33;;;15.40;99.90;;;15.67;100.00;102066.06;5287829;28;20040;-50
2023/09/04 06:03:56;;;;;;;3.78;2.50;;;15.50;99.90;;;15.78;100.00;102080.47;5278959;28;20047;-50
2023/09/04 06:06:28;;;;;;;4.45;2.20;;;15.50;99.90;;;15.90;100.00;102070.34;5279039;28;20094;-50
2023/09/04 06:09:00;;;;;;;3.75;2.60;;;15.60;99.90;;;16.04;100.00;102062.94;5271443;28;20055;-53
2023/09/04 06:11:33;;;;;;;4.07;2.58;;;15.80;99.90;;;16.21;100.00;102055.56;5287406;28;20424;-51
2023/09/04 06:14:07;;;;;;;3.17;2.35;;;15.90;99.90;;;16.42;100.00;102060.59;5287273;28;20032;-50
2023/09/04 06:16:39;;;;;;;3.78;2.40;;;16.10;99.90;;;16.68;100.00;102075.44;5278534;28;20047;-52
2023/09/04 06:19:11;;;;;;;4.20;2.53;;;16.30;99.90;;;17.01;100.00;102066.78;5281805;28;20048;-49
2023/09/04 06:21:44;;;;;;;3.97;2.17;;;16.60;99.90;;;17.54;100.00;102065.63;5266872;28;20512;-48
2023/09/04 06:24:19;;;;;;;5.82;2.10;;;17.00;99.90;;;18.23;100.00;102074.41;5266840;28;20566;-48
2023/09/04 06:26:51;;;;;;;2.75;1.88;;;17.60;99.90;;;18.75;100.00;102072.97;5266613;28;20100;-48
2023/09/04 06:29:25;;;;;;;4.20;2.00;;;18.10;99.90;;;19.20;100.00;102078.31;5266687;28;20054;-48
2023/09/04 06:31:57;;;;;;;3.50;1.95;;;18.60;99.90;;;19.65;100.00;102080.97;5266458;28;20043;-48
2023/09/04 06:34:33;;;;;;;2.50;1.90;;;18.90;99.90;;;20.08;100.00;102071.09;5266544;28;20048;-48
2023/09/04 06:37:05;;;;;;;2.75;1.88;;;19.40;99.90;;;20.37;100.00;102081.25;5266923;28;20366;-49
2023/09/04 06:39:38;;;;;;;2.92;1.80;;;19.70;99.90;;;20.63;100.00;102082.56;5266848;28;20089;-49
2023/09/04 06:42:13;;;;;;;3.78;1.85;;;20.00;99.90;;;21.00;100.00;102069.78;5266373;28;20040;-49
2023/09/04 06:44:47;;;;;;;3.75;1.90;;;20.30;99.90;;;21.34;100.00;102061.38;5266833;28;20050;-51
2023/09/04 06:47:19;;;;;;;2.60;1.80;;;20.60;99.90;;;21.65;100.00;102065.22;5266562;28;20501;-48
2023/09/04 06:49:51;;;;;;;2.28;1.65;;;20.90;99.90;;;21.77;100.00;102059.09;5266310;28;20040;-48
2023/09/04 06:52:24;;;;;;;3.10;1.75;;;21.10;99.90;;;22.04;100.00;102052.25;5266411;28;20094;-49
2023/09/04 06:54:56;;;;;;;3.17;2.03;;;21.40;99.90;;;22.12;99.11;102053.25;5266291;28;20068;-49
2023/09/04 06:57:29;;;;;;;2.42;1.58;;;21.50;99.90;;;22.17;98.25;102059.47;5266115;28;20047;-49
2023/09/04 07:00:08;;;;;;;2.78;1.60;;;21.60;99.90;;;21.98;98.80;102057.53;5265941;28;20044;-49
2023/09/04 07:02:44;;;;;;;2.55;1.95;;;21.50;99.90;;;22.05;99.25;102057.59;5265962;28;20389;-49
2023/09/04 07:05:17;;;;;;;2.47;1.60;;;21.50;99.90;;;22.33;98.79;102058.69;5266129;28;20044;-49
2023/09/04 07:07:49;;;;;;;5.75;1.98;;;21.70;99.90;;;22.66;98.30;102047.34;5265810;28;20218;-49
2023/09/04 07:10:22;;;;;;;2.13;1.55;;;22.00;99.90;;;22.99;96.35;102051.94;5265753;28;20054;-50
2023/09/04 07:12:54;;;;;;;2.70;1.67;;;22.20;99.90;;;23.20;95.38;102044.91;5265093;28;20044;-49
2023/09/04 07:15:28;;;;;;;2.40;1.50;;;22.50;99.90;;;23.40;94.30;102051.16;5265560;28;20063;-49
2023/09/04 07:18:01;;;;;;;2.85;1.55;;;22.60;99.90;;;23.56;93.36;102052.97;5266871;28;20043;-48
2023/09/04 07:20:36;;;;;;;3.47;1.35;;;22.80;99.90;;;23.60;91.88;102050.28;5265534;28;20070;-49
2023/09/04 07:23:09;;;;;;;3.47;1.30;;;22.90;99.90;;;23.77;92.35;102049.47;5265886;28;20048;-49
2023/09/04 07:25:41;;;;;;;2.08;1.30;;;23.00;99.90;;;23.67;90.92;102039.72;5265512;28;20523;-49
2023/09/04 07:28:13;;;;;;;2.33;1.40;;;23.00;99.80;;;23.67;91.87;102038.78;5265429;28;20566;-49
2023/09/04 07:30:47;;;;;;;1.40;1.20;;;23.10;99.90;;;23.81;91.67;102037.94;5265652;28;20040;-49
2023/09/04 07:33:19;;;;;;;2.65;1.67;;;23.20;99.80;;;24.04;92.14;102039.69;5265535;28;20175;-49
2023/09/04 07:35:55;;;;;;;3.60;1.58;;;23.30;99.90;;;24.34;90.61;102046.78;5265364;28;20059;-48
2023/09/04 07:38:27;;;;;;;3.50;1.60;;;23.50;99.70;;;24.51;88.91;102049.38;5265521;28;20042;-49
2023/09/04 07:41:01;;;;;;;2.22;1.42;;;23.70;98.90;;;24.71;88.14;102054.63;5265332;28;20044;-48
2023/09/04 07:43:34;;;;;;;2.65;1.58;;;23.90;98.60;;;24.96;87.17;102050.09;5264843;28;20139;-49
2023/09/04 07:46:07;;;;;;;1.48;1.30;;;24.10;98.20;;;25.14;86.23;102042.91;5265074;28;20044;-49
2023/09/04 07:48:40;;;;;;;2.70;1.45;;;24.30;97.80;;;25.27;85.81;102042.84;5265455;28;20059;-49
2023/09/04 07:51:12;;;;;;;1.77;1.25;;;24.40;97.60;;;25.29;85.18;102047.25;5265087;28;20513;-49
2023/09/04 07:53:45;;;;;;;1.58;1.25;;;24.50;97.20;;;25.40;84.78;102055.22;5264894;28;20051;-49
2023/09/04 07:56:17;;;;;;;2.28;1.42;;;24.60;96.90;;;25.39;83.77;102056.13;5264863;28;20048;-49
2023/09/04 07:58:49;;;;;;;3.58;1.48;;;24.60;96.30;;;25.53;83.39;102062.22;5264924;28;20036;-50
2023/09/04 08:01:23;;;;;;;2.08;1.50;;;24.80;96.10;;;25.57;81.75;102058.66;5264933;28;20044;-50
2023/09/04 08:03:57;;;;;;;2.58;1.77;;;24.90;95.30;;;25.53;81.47;102056.00;5264958;28;20051;-48
2023/09/04 08:06:29;;;;;;;2.13;1.42;;;24.80;94.90;;;25.61;81.94;102055.03;5264703;28;20040;-49
2023/09/04 08:09:02;;;;;;;1.60;1.15;;;24.80;95.10;;;25.79;81.76;102051.38;5264738;28;20055;-49
2023/09/04 08:11:35;;;;;;;2.28;1.40;;;24.90;95.10;;;26.01;80.82;102045.84;5264583;28;20040;-49
2023/09/04 08:14:07;;;;;;;3.03;1.50;;;25.00;94.70;;;26.36;80.29;102045.50;5264674;28;20056;-49
2023/09/04 08:16:41;;;;;;;2.55;1.58;;;25.20;94.60;;;26.61;77.98;102047.03;5264604;28;20044;-50
2023/09/04 08:19:13;;;;;;;3.60;1.30;;;25.30;93.50;;;27.01;78.86;102049.19;5264596;28;20071;-50
2023/09/04 08:21:46;;;;;;;2.85;1.52;;;25.50;94.20;;;27.46;77.15;102052.13;5264492;28;20055;-50
2023/09/04 08:24:18;;;;;;;2.67;1.52;;;25.70;93.70;;;27.97;75.89;102049.50;5264404;28;20065;-50
2023/09/04 08:26:51;;;;;;;1.80;1.17;;;26.00;93.20;;;28.68;74.80;102058.00;5264408;28;20139;-50
2023/09/04 08:29:23;;;;;;;2.25;1.40;;;26.40;93.30;;;29.62;72.39;102059.53;5264542;28;20516;-50
2023/09/04 08:31:57;;;;;;;1.90;1.30;;;26.90;92.80;;;30.44;69.06;102062.75;5264564;28;20082;-50
2023/09/04 08:34:29;;;;;;;;;;;27.40;91.40;;;31.02;66.18;102069.16;5265079;28;20060;-50
2023/09/04 08:37:02;;;;;;;2.58;1.15;;;27.90;89.30;;;31.64;64.38;102065.44;5264339;28;19971;-50
2023/09/04 08:39:34;;;;;;;2.42;1.45;;;28.50;87.00;;;31.96;63.81;102058.97;5264320;28;20048;-50
2023/09/04 08:42:07;;;;;;;2.78;1.33;;;29.00;84.80;;;32.01;62.31;102064.19;5264017;28;20032;-50
2023/09/04 08:44:40;;;;;;;2.92;1.50;;;29.30;81.80;;;31.99;62.51;102066.06;5264185;28;20072;-50
2023/09/04 08:47:19;;;;;;;3.13;1.35;;;29.40;81.20;;;32.16;62.30;102060.09;5264435;28;20501;-50
2023/09/04 08:49:53;;;;;;;3.33;1.73;;;29.60;79.70;;;32.50;60.81;102054.38;5264146;28;20565;-49
2023/09/04 08:52:26;;;;;;;2.00;1.40;;;29.90;78.00;;;32.45;60.92;102065.34;5263907;28;20097;-50
2023/09/04 08:54:58;;;;;;;2.70;1.55;;;29.90;77.20;;;32.43;60.48;102061.81;5264098;28;20424;-50
2023/09/04 08:57:31;;;;;;;5.38;1.67;;;30.00;76.20;;;31.92;60.97;102049.22;5264150;28;20454;-50
2023/09/04 09:00:05;;;;;;;2.08;1.50;;;29.70;75.90;;;31.76;62.30;102043.47;5264170;28;20052;-50
2023/09/04 09:02:40;;;;;;;2.55;1.60;;;29.60;76.70;;;31.77;62.28;102056.00;5263995;28;20040;-50
2023/09/04 09:05:17;;;;;;;3.55;1.45;;;29.70;76.40;;;31.67;62.65;102043.75;5264279;28;20450;-50
2023/09/04 09:07:50;;;;;;;1.83;1.20;;;29.70;77.00;;;31.64;63.00;102043.00;5264092;28;20040;-50
2023/09/04 09:10:23;;;;;;;2.60;1.60;;;29.80;76.40;;;31.01;62.72;102036.91;5263872;28;20052;-50
2023/09/04 09:12:59;;;;;;;;;;;29.60;74.80;;;30.20;64.43;102050.88;5264345;28;20574;-50
2023/09/04 09:15:32;;;;;;;1.98;1.73;;;29.10;75.70;;;29.50;66.45;102049.06;5264199;28;20717;-49
2023/09/04 09:18:06;;;;;;;1.42;1.33;;;28.70;76.70;;;28.98;68.37;102032.34;5264148;28;20055;-49
2023/09/04 09:20:42;;;;;;;;;;;28.30;78.10;;;28.50;69.14;102027.09;5264721;28;20044;-49
2023/09/04 09:23:16;;;;;;;2.78;1.55;;;27.90;78.60;;;28.27;70.66;102040.91;5264315;28;20386;-49
2023/09/04 09:25:55;;;;;;;;;;;27.60;80.20;;;27.76;70.73;102035.59;5264355;28;20125;-50
2023/09/04 09:28:27;;;;;;;3.05;1.45;;;27.20;79.80;;;27.62;71.33;102023.31;5263980;28;19927;-50
2023/09/04 09:31:00;;;;;;;2.15;1.80;;;27.00;80.70;;;27.44;70.86;102028.03;5264041;28;20032;-50
2023/09/04 09:33:36;;;;;;;3.13;1.92;;;26.80;80.00;;;27.37;71.68;102026.38;5263859;28;20127;-50
2023/09/04 09:36:14;;;;;;;3.15;1.73;;;26.70;80.90;;;27.41;71.34;102020.06;5267347;28;20071;-50
2023/09/04 09:38:47;;;;;;;2.92;1.70;;;26.70;80.70;;;27.28;71.66;102030.09;5267735;28;20051;-50
2023/09/04 09:41:19;;;;;;;2.95;1.75;;;26.60;81.00;;;26.96;71.85;102024.28;5267480;28;20040;-51
2023/09/04 09:43:52;;;;;;;2.47;1.50;;;26.50;81.00;;;26.96;72.81;102021.59;5267798;28;20493;-50
2023/09/04 09:46:25;;;;;;;2.75;1.80;;;26.30;81.90;;;27.05;73.03;102017.03;5267793;28;20048;-49
2023/09/04 09:49:02;;;;;;;2.90;1.70;;;26.40;82.20;;;27.11;72.04;102005.34;5267643;28;20123;-50
2023/09/04 09:51:36;;;;;;;2.35;1.67;;;26.40;81.70;;;27.04;70.55;102007.19;5267547;28;20036;-50
2023/09/04 09:54:12;;;;;;;2.17;1.30;;;26.40;80.20;;;26.87;70.98;102000.34;5267659;28;20059;-50
2023/09/04 09:56:45;;;;;;;2.90;1.60;;;26.30;80.50;;;26.99;72.17;101997.47;5267263;28;20052;-50
2023/09/04 09:59:18;;;;;;;2.53;1.58;;;26.30;81.80;;;26.97;71.18;101993.94;5267240;28;20040;-50
2023/09/04 10:01:50;;;;;;;2.35;1.52;;;26.30;81.00;;;26.95;71.79;101993.97;5267124;28;20558;-50
2023/09/04 10:04:26;;;;;;;2.90;1.58;;;26.30;81.40;;;26.98;71.84;101985.00;5267210;28;20059;-50
2023/09/04 10:07:00;;;;;;;2.95;1.65;;;26.30;82.20;;;27.08;72.77;101978.66;5267307;28;20056;-49
2023/09/04 10:09:39;;;;;;;1.73;1.50;;;26.40;82.50;;;27.25;73.00;101976.56;5268387;28;20048;-50
2023/09/04 10:12:16;;;;;;;3.65;1.58;;;26.50;82.80;;;27.39;72.55;101967.47;5267024;28;20125;-50
2023/09/04 10:14:56;;;;;;;2.22;1.60;;;26.60;82.40;;;27.58;71.93;101974.25;5267172;28;20055;-50
2023/09/04 10:17:36;;;;;;;2.83;1.70;;;26.80;82.00;;;27.74;71.01;101969.56;5267098;28;20044;-49
2023/09/04 10:20:13;;;;;;;3.15;2.00;;;26.90;81.30;;;27.71;70.87;101973.19;5266971;28;20047;-50
2023/09/04 10:22:57;;;;;;;2.38;1.63;;;26.90;81.00;;;27.81;71.27;101977.44;5266910;28;20036;-49
2023/09/04 10:25:37;;;;;;;2.35;1.50;;;27.00;81.50;;;28.08;71.24;101976.03;5266504;28;20055;-49
2023/09/04 10:28:18;;;;;;;2.03;1.80;;;27.20;81.80;;;28.09;69.39;101976.94;5266727;28;20411;-50
2023/09/04 10:30:56;;;;;;;2.80;1.50;;;27.20;80.40;;;27.77;70.09;101965.00;5266370;28;20044;-49
2023/09/04 10:33:29;;;;;;;3.42;1.90;;;27.10;80.00;;;27.66;70.53;101961.63;5266657;28;20048;-49
2023/09/04 10:36:05;;;;;;;1.90;1.60;;;27.00;80.40;;;27.45;71.46;101951.28;5266461;28;20090;-49
2023/09/04 10:38:38;;;;;;;2.08;1.50;;;26.80;80.80;;;27.36;72.57;101948.75;5266471;28;20352;-51